• Join FlightAware (Why Join?)
  • Login
  • US Flag 
07:08AM EST


 

Airport Tracker/Info


-or-


 

Live Flight TrackerFlight Track Log ✈ N825JF ✈ 30-Jun-2013 ✈ KLBB - KEFD

Flight Track Log - Related Links

Times and Time Zones

All times are in EDT time to prevent confusion due to time zone crossing. See the N825JF flight status page for this flight to view local times or setup timezone preferences in your user account.

Time Position Orientation Groundspeed Altitude Reporting Facility
EDT Latitude Longitude Course Direction KTS MPH feet Rate Location/Type
08:02PM 33.6361 -101.8317 164° South 102 117 3,700  Level Fort Worth Center
08:03PM 33.6114 -101.8231 164° South 106 122 4,400 540 Climbing Fort Worth Center
08:04PM 33.5914 -101.7969 133° Southeast 106 122 4,800 420 Climbing Fort Worth Center
08:05PM 33.5694 -101.7686 133° Southeast 114 131 5,300 360 Climbing Fort Worth Center
08:06PM 33.5519 -101.7353 122° Southeast 122 140 5,600 360 Climbing Fort Worth Center
08:07PM 33.5344 -101.6994 120° Southeast 127 146 6,100 480 Climbing Fort Worth Center
08:08PM 33.5081 -101.6733 140° Southeast 127 146 6,600 420 Climbing Fort Worth Center
08:09PM 33.4842 -101.6397 130° Southeast 122 140 7,000 360 Climbing Fort Worth Center
08:10PM 33.4642 -101.6139 133° Southeast 122 140 7,400 360 Climbing Fort Worth Center
08:11PM 33.4486 -101.5783 118° Southeast 121 139 7,800 420 Climbing Fort Worth Center
08:12PM 33.4269 -101.5425 126° Southeast 124 143 8,300 360 Climbing Fort Worth Center
08:13PM 33.4011 -101.5014 127° Southeast 110 127 8,700 300 Climbing Fort Worth Center
08:14PM 33.3792 -101.4731 133° Southeast 129 148 9,100 180 Climbing Fort Worth Center
08:15PM 33.3550 -101.4422 133° Southeast 137 158 9,100  Level Fort Worth Center
08:16PM 33.3272 -101.4011 129° Southeast 142 163 9,100  Level Fort Worth Center
08:17PM 33.2992 -101.3600 129° Southeast 147 169 9,100  Level Fort Worth Center
08:18PM 33.2692 -101.3214 133° Southeast 152 175 9,100  Level Fort Worth Center
08:19PM 33.2414 -101.2781 127° Southeast 152 175 9,100  Level Fort Worth Center
08:20PM 33.2153 -101.2397 129° Southeast 157 181 9,100  Level Fort Worth Center
08:21PM 33.1894 -101.1989 127° Southeast 152 175 9,100  Level Fort Worth Center
08:22PM 33.1656 -101.1581 125° Southeast 152 175 9,100  Level Fort Worth Center
08:23PM 33.1397 -101.1172 127° Southeast 159 183 9,100  Level Fort Worth Center
08:24PM 33.1136 -101.0789 129° Southeast 159 183 9,100  Level Fort Worth Center
08:25PM 33.0856 -101.0381 129° Southeast 154 177 9,100  Level Fort Worth Center
08:26PM 33.0575 -101.0000 131° Southeast 154 177 9,100 -60 Level Fort Worth Center
08:27PM 33.0294 -100.9592 129° Southeast 159 183 9,000 -60 Descending Fort Worth Center
08:28PM 32.9994 -100.9183 131° Southeast 159 183 9,000  Level Fort Worth Center
08:29PM 32.9711 -100.8775 130° Southeast 159 183 9,000  Level Fort Worth Center
08:30PM 32.9453 -100.8369 127° Southeast 159 183 9,000  Level Fort Worth Center
08:31PM 32.9150 -100.7936 130° Southeast 159 183 9,000  Level Fort Worth Center
08:32PM 32.8869 -100.7506 128° Southeast 159 183 9,000  Level Fort Worth Center
08:33PM 32.8567 -100.7122 133° Southeast 159 183 9,000  Level Fort Worth Center
08:34PM 32.8308 -100.6669 124° Southeast 159 183 9,000  Level Fort Worth Center
08:35PM 32.8006 -100.6286 133° Southeast 159 183 9,100  Climbing Fort Worth Center
08:36PM 32.7681 -100.5881 134° Southeast 164 189 9,100 -60 Level Fort Worth Center
08:37PM 32.7378 -100.5475 132° Southeast 164 189 9,000  Descending Fort Worth Center
08:38PM 32.7117 -100.5047 126° Southeast 164 189 9,100  Climbing Fort Worth Center
08:39PM 32.6836 -100.4617 128° Southeast 164 189 9,100  Level Fort Worth Center
08:40PM 32.6553 -100.4164 127° Southeast 159 183 9,100  Level Fort Worth Center
08:41PM 32.6250 -100.3758 132° Southeast 159 183 9,100  Level Fort Worth Center
08:42PM 32.5928 -100.3328 132° Southeast 164 189 9,100 -60 Level Fort Worth Center
08:43PM 32.5622 -100.2950 134° Southeast 164 189 9,000  Descending Fort Worth Center
08:44PM 32.5297 -100.2544 134° Southeast 169 194 9,100  Climbing Fort Worth Center
08:45PM 32.5058 -100.2094 122° Southeast 169 194 9,100  Level Fort Worth Center
08:46PM 32.4797 -100.1617 123° Southeast 164 189 9,100  Level Fort Worth Center
08:47PM 32.4428 -100.1261 141° Southeast 164 189 9,100  Level Fort Worth Center
08:48PM 32.4144 -100.0836 128° Southeast 164 189 9,100 -60 Level Fort Worth Center
08:50PM 32.3844 -100.0412 130° Southeast  Level FlightAware Approximate
08:57PM 32.1806 -99.7543 130° Southeast  Level FlightAware Approximate
08:57PM 32.1797 -99.7158 130° Southeast 167 192 9,000  Level Fort Worth Center
08:58PM 32.1514 -99.7134 130° Southeast  Level FlightAware Approximate
08:58PM 32.1469 -99.6781 136° Southeast 181 208 9,000  Level Fort Worth Center
08:59PM 32.1223 -99.6726 130° Southeast  Level FlightAware Approximate
08:59PM 32.1119 -99.6428 140° Southeast 176 203 9,000  Level Fort Worth Center
09:00PM 32.0931 -99.6318 130° Southeast  Level FlightAware Approximate
09:00PM 32.0814 -99.6006 130° Southeast 171 197 9,100  Level Fort Worth Center
09:01PM 32.0639 -99.5910 130° Southeast  Level FlightAware Approximate
09:01PM 32.0508 -99.5581 130° Southeast 166 191 9,200  Level Fort Worth Center
09:02PM 32.0346 -99.5502 130° Southeast  Level FlightAware Approximate
09:02PM 32.0244 -99.5183 128° Southeast 166 191 9,100  Level Fort Worth Center
09:03PM 32.0054 -99.5095 130° Southeast  Level FlightAware Approximate
09:03PM 32.0044 -99.4736 118° Southeast 161 185 9,500  Level Fort Worth Center
09:04PM 31.9819 -99.4414 129° Southeast 143 165 10,000 420 Climbing Fort Worth Center
09:05PM 31.9553 -99.4089 134° Southeast 138 159 10,400 300 Climbing Fort Worth Center
09:06PM 31.9136 -99.4081 179° South 130 150 10,700 300 Climbing Fort Worth Center
09:07PM 31.8761 -99.3975 167° South 136 157 11,000 240 Climbing Fort Worth Center
09:08PM 31.8389 -99.3819 160° South 141 162 11,200  Climbing Fort Worth Center
09:09PM 31.8100 -99.3447 132° Southeast 146 168 11,100 -60 Descending Fort Worth Center
09:10PM 31.7836 -99.3050 128° Southeast 151 174 11,100  Level Fort Worth Center
09:11PM 31.7592 -99.2531 119° Southeast 162 186 11,100  Level Fort Worth Center
09:12PM 31.7286 -99.2158 134° Southeast 162 186 11,100  Level Fort Worth Center
09:13PM 31.6936 -99.1786 138° Southeast 162 186 11,100  Level Fort Worth Center
09:14PM 31.6628 -99.1389 132° Southeast 162 186 11,100  Level Fort Worth Center
09:16PM 31.6017 -99.0519 130° Southeast 163 188 11,100  Level Houston Center
09:17PM 31.5736 -99.0114 129° Southeast 159 183 11,100  Level Houston Center
09:18PM 31.5442 -98.9700 130° Southeast 162 186 11,100  Level Houston Center
09:19PM 31.5183 -98.9272 125° Southeast 160 184 11,100  Level Houston Center
09:20PM 31.4917 -98.8847 126° Southeast 161 185 11,100  Level Houston Center
09:21PM 31.4650 -98.8428 127° Southeast 160 184 11,100  Level Houston Center
09:22PM 31.4408 -98.7986 123° Southeast 159 183 11,100  Level Houston Center
09:23PM 31.4161 -98.7536 123° Southeast 161 185 11,100  Level Houston Center
09:24PM 31.3828 -98.7156 136° Southeast 165 190 11,100  Level Houston Center
09:25PM 31.3475 -98.6794 139° Southeast 168 193 11,100  Level Houston Center
09:26PM 31.3186 -98.6372 129° Southeast 165 190 11,100  Level Houston Center
09:27PM 31.2933 -98.5956 125° Southeast 159 183 11,100  Level Houston Center
09:28PM 31.2600 -98.5481 129° Southeast 159 183 11,100  Level Houston Center
09:29PM 31.2314 -98.5061 129° Southeast 163 188 11,100  Level Houston Center
09:30PM 31.2011 -98.4650 131° Southeast 165 190 11,100  Level Houston Center
09:31PM 31.1728 -98.4228 128° Southeast 164 189 11,100  Level Houston Center
09:32PM 31.1431 -98.3819 130° Southeast 163 188 11,100  Level Houston Center
09:33PM 31.1136 -98.3389 129° Southeast 167 192 11,100 -60 Level Houston Center
09:34PM 31.0836 -98.2953 129° Southeast 170 196 11,000 -60 Descending Houston Center
09:35PM 31.0522 -98.2531 131° Southeast 170 196 11,000  Level Houston Center
09:36PM 31.0217 -98.2106 130° Southeast 170 196 11,000  Level Houston Center
09:37PM 30.9967 -98.1739 128° Southeast 171 197 11,000  Level Houston Center
09:38PM 30.9669 -98.1294 128° Southeast 172 198 11,000  Level Houston Center
09:39PM 30.9358 -98.0864 130° Southeast 172 198 11,000  Level Houston Center
09:40PM 30.9053 -98.0417 129° Southeast 174 200 11,000  Level Houston Center
09:41PM 30.8733 -97.9972 130° Southeast 176 203 11,000  Level Houston Center
09:42PM 30.8425 -97.9525 129° Southeast 177 204 11,000  Level Houston Center
09:43PM 30.8111 -97.9083 130° Southeast 176 203 11,000  Level Houston Center
09:44PM 30.7789 -97.8642 130° Southeast 177 204 11,000  Level Houston Center
09:45PM 30.7469 -97.8203 130° Southeast 177 204 11,000  Level Houston Center
09:46PM 30.7161 -97.7742 128° Southeast 178 205 11,000  Level Houston Center
09:47PM 30.6850 -97.7300 129° Southeast 176 203 11,000  Level Houston Center
09:48PM 30.6531 -97.6858 130° Southeast 176 203 11,000  Level Houston Center
09:49PM 30.6217 -97.6425 130° Southeast 175 201 11,000  Level Houston Center
09:50PM 30.5867 -97.5925 129° Southeast 171 197 11,100  Climbing Houston Center
09:52PM 30.5550 -97.5483 130° Southeast 175 201 11,100  Level Houston Center
09:53PM 30.5233 -97.5031 129° Southeast 178 205 11,100 -60 Level Houston Center
09:54PM 30.4917 -97.4592 130° Southeast 177 204 11,000 -60 Descending Houston Center
09:55PM 30.4606 -97.4150 129° Southeast 176 203 11,000  Level Houston Center
09:56PM 30.4283 -97.3706 130° Southeast 177 204 11,000 -60 Level Houston Center
09:57PM 30.3975 -97.3269 129° Southeast 175 201 10,900 -360 Descending Houston Center
09:58PM 30.3622 -97.2789 130° Southeast 191 220 10,300 -480 Descending Houston Center
09:58PM 30.3378 -97.2450 130° Southeast 198 228 10,100 -420 Descending Houston Center
09:59PM 30.3197 -97.2008 115° Southeast 194 223 9,700 -540 Descending Houston Center
10:00PM 30.3122 -97.1717 107° East 187 215 9,400 -600 Descending Houston Center
10:01PM 30.2958 -97.1139 108° East 187 215 8,800 -600 Descending Houston Center
10:02PM 30.2733 -97.0617 117° Southeast 181 208 8,200 -600 Descending Houston Center
10:03PM 30.2544 -97.0067 112° Southeast 181 208 7,700 -480 Descending Houston Center
10:03PM 30.2431 -96.9697 110° East 188 216 7,500 -480 Descending Houston Center
10:04PM 30.2297 -96.9083 104° East 191 220 7,000 -300 Descending Houston Center
10:05PM 30.2106 -96.8525 112° Southeast 191 220 7,000  Level Houston Center
10:06PM 30.1956 -96.7936 106° East 179 206 7,000  Level Houston Center
10:07PM 30.1806 -96.7372 107° East 176 203 7,000  Level Houston Center
10:08PM 30.1658 -96.6858 108° East 177 204 7,000  Level Houston Center
10:09PM 30.1444 -96.6303 114° Southeast 181 208 7,000  Level Houston Center
10:10PM 30.1231 -96.5722 113° Southeast 179 206 7,000  Level Houston Center
10:11PM 30.1067 -96.5258 112° Southeast 179 206 7,000  Level Houston Center
10:12PM 30.0872 -96.4700 112° Southeast 179 206 7,000  Level Houston Center
10:13PM 30.0811 -96.4506 110° East 181 208 7,000  Level Houston Center
10:14PM 30.0656 -96.4097 114° Southeast 179 206 7,000  Level Houston Center
10:14PM 30.0494 -96.3681 114° Southeast 177 204 7,000  Level Houston Center
10:15PM 30.0394 -96.3347 109° East 179 206 7,000  Level Houston Center
10:16PM 30.0200 -96.2825 113° Southeast 177 204 7,000  Level Houston Center
10:16PM 30.0108 -96.2589 114° Southeast 175 201 7,000  Level Houston Center
10:17PM 30.0022 -96.2306 109° East 175 201 7,000  Level Houston Center
10:17PM 29.9936 -96.2053 111° Southeast 173 199 7,000  Level Houston Center
10:18PM 29.9844 -96.1789 112° Southeast 174 200 7,000  Level Houston Center
10:19PM 29.9653 -96.1267 113° Southeast 176 203 7,000  Level Houston Center
10:20PM 29.9461 -96.0744 113° Southeast 177 204 7,000  Level Houston Center
10:21PM 29.9239 -96.0233 117° Southeast 179 206 7,000  Level Houston Center
10:22PM 29.8964 -95.9750 123° Southeast 178 205 7,000  Level Houston Center
10:23PM 29.8697 -95.9264 122° Southeast 180 207 7,000  Level Houston Center
10:24PM 29.8431 -95.8792 123° Southeast 177 204 7,000 -60 Level Houston Center
10:25PM 29.8119 -95.8325 128° Southeast 182 209 6,900 -480 Descending Houston Center
10:26PM 29.7797 -95.7808 126° Southeast 194 223 6,100 -660 Descending Houston Center
10:27PM 29.7450 -95.7297 128° Southeast 202 232 5,600 -600 Descending Houston Center
10:28PM 29.7069 -95.6706 127° Southeast 195 224 5,000 -300 Descending Houston Center
10:29PM 29.6758 -95.6247 128° Southeast 187 215 5,000  Level Houston Center
10:30PM 29.6475 -95.5797 126° Southeast 178 205 5,000  Level Houston Center
10:31PM 29.6203 -95.5350 125° Southeast 173 199 5,000 -300 Level Houston Center
10:32PM 29.5906 -95.4894 127° Southeast 178 205 4,400 -660 Descending Houston Center
10:33PM 29.5583 -95.4414 128° Southeast 187 215 3,700 -780 Descending Houston Center
10:34PM 29.5283 -95.3933 126° Southeast 187 215 2,900 -780 Descending Houston Center
10:35PM 29.5219 -95.3392 98° East 179 206 2,200 -720 Descending Houston Center